Blanchard, Michigan
Current Conditions -  °F | °C
As of 9:15 AM on Wednesday 26 Nov 2014 (Local Time) from KMOP Reporting Station
Overcast Overcast  
Wind Chill: 23°   Ceiling: 2900
Heat Index: 29°   Visibility: 10mi
Dew Point: 22°   Wind: 6mph
Humidity: 73%   Direction: 110°ESE
Pressure: 30.17"   Gusts: NA
Location:  43.52°N, 85.08°W
Report Text: KMOP 261415Z AUTO 11005KT 10SM OVC029 M01/M06 A3017 RMK AO2 T10151058
Loading
Personal Weather Stations






























Interactive Weather Map New forecast layout! Learn more

10-Day Weather Forecast

Advertisements
Track Severe Weather on mobile